Time;durP1;ratioP1;P1;durP2;ratioP2;P2;SDS_P1;SDS_P2;PMS_P1;PMS_P2;Temp;Humidity;BMP_temperature;BMP_pressure;BME280_temperature;BME280_humidity;BME280_pressure;Samples;Min_cycle;Max_cycle;Signal;HPM_P1;HPM_P2
2023/12/31 00:06:05;;;;;;;0.00;0.00;;;;;;;6.29;100.00;97657.66;4894270;29;20518;-75
2023/12/31 00:08:31;;;;;;;0.10;0.10;;;;;;;6.52;100.00;97693.00;4874472;29;20056;-81
2023/12/31 00:12:00;;;;;;;0.00;0.00;;;;;;;6.62;100.00;97703.63;4933568;29;20047;-84
2023/12/31 00:14:51;;;;;;;0.00;0.00;;;;;;;6.61;100.00;97702.03;4902088;28;20460;-84
2023/12/31 00:17:16;;;;;;;0.00;0.00;;;;;;;6.30;100.00;97637.56;4919587;29;20067;-82
2023/12/31 00:20:13;;;;;;;;;;;;;;;;;;;;;
2023/12/31 01:11:24;;;;;;;0.00;0.00;;;;;;;6.72;100.00;97564.91;5061710;28;20051;-82
2023/12/31 01:13:57;;;;;;;0.00;0.00;;;;;;;6.79;100.00;97567.16;5050647;28;20040;-83
2023/12/31 01:16:40;;;;;;;0.10;0.10;;;;;;;6.90;100.00;97570.44;5037007;28;20017;-82
2023/12/31 01:22:57;;;;;;;;;;;;;;;;;;;;;
2023/12/31 01:25:23;;;;;;;0.00;0.00;;;;;;;6.75;100.00;97518.09;5041780;28;20106;-83
2023/12/31 01:28:11;;;;;;;0.00;0.00;;;;;;;6.59;100.00;97484.31;5040315;28;20053;-82
2023/12/31 01:37:28;;;;;;;;;;;;;;;;;;;;;
2023/12/31 01:39:57;;;;;;;0.00;0.00;;;;;;;6.68;100.00;97466.16;5058447;28;20089;-82
2023/12/31 01:47:05;;;;;;;;;;;;;;;;;;;;;
2023/12/31 02:02:27;;;;;;;0.00;0.00;;;;;;;6.71;100.00;97396.84;4765827;29;20171;-82
2023/12/31 02:04:42;;;;;;;0.03;0.03;;;;;;;6.62;100.00;97381.31;4848395;29;20029;-81
2023/12/31 02:07:11;;;;;;;0.00;0.00;;;;;;;6.73;100.00;97379.13;4888852;29;21160;-79
2023/12/31 02:10:50;;;;;;;0.00;0.00;;;;;;;6.68;100.00;97354.81;4872416;29;20044;-80
2023/12/31 02:13:30;;;;;;;0.00;0.00;;;;;;;6.72;100.00;97371.28;4937759;28;20109;-81
2023/12/31 02:15:55;;;;;;;0.00;0.00;;;;;;;6.63;100.00;97346.84;5047628;28;20040;-79
2023/12/31 02:18:31;;;;;;;;;;;;;;;;;;;;;
2023/12/31 02:21:01;;;;;;;0.00;0.00;;;;;;;6.72;100.00;97344.94;5060240;28;20124;-83
2023/12/31 02:23:34;;;;;;;0.00;0.00;;;;;;;7.06;100.00;97375.97;5040505;28;20043;-82
2023/12/31 02:26:11;;;;;;;0.00;0.00;;;;;;;7.02;100.00;97377.72;5044490;28;20059;-82
2023/12/31 02:28:40;;;;;;;0.00;0.00;;;;;;;6.94;100.00;97389.41;5057880;28;20029;-82
2023/12/31 02:31:08;;;;;;;0.00;0.00;;;;;;;6.73;100.00;97335.66;5045292;28;20008;-82
2023/12/31 02:33:33;;;;;;;0.00;0.00;;;;;;;6.61;100.00;97327.31;5051117;28;20040;-83
2023/12/31 02:36:09;;;;;;;;;;;;;;;;;;;;;
2023/12/31 02:51:19;;;;;;;;;;;;;;;;;;;;;
2023/12/31 03:11:30;;;;;;;0.10;0.10;;;;;;;6.00;100.00;97330.63;4788734;29;20081;-77
2023/12/31 03:14:12;;;;;;;0.00;0.00;;;;;;;5.73;100.00;97332.34;4826085;29;20057;-80
2023/12/31 03:16:45;;;;;;;0.00;0.00;;;;;;;5.67;100.00;97354.47;4845037;29;20040;-79
2023/12/31 03:19:28;;;;;;;0.00;0.00;;;;;;;5.56;100.00;97375.59;5004296;28;20032;-80
2023/12/31 03:21:53;;;;;;;0.00;0.00;;;;;;;5.39;100.00;97355.41;5043352;28;20092;-79
2023/12/31 03:24:22;;;;;;;0.00;0.00;;;;;;;5.20;100.00;97341.22;5019967;28;20056;-81
2023/12/31 03:26:48;;;;;;;0.10;0.10;;;;;;;5.16;100.00;97410.66;5027059;28;20052;-79
2023/12/31 03:29:13;;;;;;;0.10;0.10;;;;;;;4.91;100.00;97372.19;5027140;28;20037;-80
2023/12/31 03:32:04;;;;;;;0.10;0.10;;;;;;;4.76;100.00;97372.50;5024690;28;20017;-80
2023/12/31 03:34:47;;;;;;;0.00;0.00;;;;;;;4.62;100.00;97380.63;5032237;28;20020;-80
2023/12/31 03:37:16;;;;;;;0.00;0.00;;;;;;;4.72;100.00;97424.53;5032332;28;20017;-80
2023/12/31 03:39:51;;;;;;;0.10;0.10;;;;;;;4.47;100.00;97385.25;5032760;28;20044;-79
2023/12/31 03:42:22;;;;;;;0.10;0.10;;;;;;;4.76;100.00;97419.34;5054930;28;20028;-80
2023/12/31 03:45:19;;;;;;;0.00;0.00;;;;;;;4.49;100.00;97383.03;5034943;28;20017;-81
2023/12/31 03:47:59;;;;;;;0.00;0.00;;;;;;;4.57;100.00;97391.56;5029601;28;20175;-79
2023/12/31 03:50:36;;;;;;;0.10;0.10;;;;;;;4.65;100.00;97429.53;5041181;28;20029;-80
2023/12/31 03:53:12;;;;;;;0.00;0.00;;;;;;;4.66;100.00;97441.97;5026064;28;20581;-81
2023/12/31 03:55:38;;;;;;;0.10;0.10;;;;;;;4.47;100.00;97427.75;5026476;28;20033;-80
2023/12/31 03:58:11;;;;;;;0.10;0.10;;;;;;;4.21;100.00;97413.88;5048381;28;20043;-82
2023/12/31 04:00:42;;;;;;;0.10;0.10;;;;;;;4.26;100.00;97433.50;5028042;28;20056;-79
2023/12/31 04:03:20;;;;;;;0.10;0.10;;;;;;;4.26;100.00;97436.22;5035788;28;20032;-80
2023/12/31 04:05:45;;;;;;;0.10;0.10;;;;;;;4.30;100.00;97437.22;5036645;28;20021;-80
2023/12/31 04:08:13;;;;;;;0.00;0.00;;;;;;;4.50;100.00;97473.94;5010198;28;20375;-81
2023/12/31 04:10:59;;;;;;;0.00;0.00;;;;;;;4.34;100.00;97468.00;5016337;28;20030;-79
2023/12/31 04:16:10;;;;;;;0.00;0.00;;;;;;;4.44;100.00;97504.09;5066981;28;20171;-81
2023/12/31 04:18:43;;;;;;;0.00;0.00;;;;;;;4.22;100.00;97454.16;5055111;28;20410;-83
2023/12/31 04:21:16;;;;;;;0.00;0.00;;;;;;;4.33;100.00;97479.91;5039292;28;20047;-81
2023/12/31 04:23:43;;;;;;;0.10;0.10;;;;;;;4.32;100.00;97472.09;5054017;28;20052;-82
2023/12/31 04:26:49;;;;;;;0.10;0.10;;;;;;;4.30;100.00;97458.88;5036804;28;20096;-82
2023/12/31 04:29:20;;;;;;;0.08;0.08;;;;;;;4.28;100.00;97452.97;5057819;28;20155;-81
2023/12/31 04:32:03;;;;;;;0.10;0.10;;;;;;;4.25;100.00;97453.56;5053114;28;20028;-82
2023/12/31 04:34:29;;;;;;;0.00;0.00;;;;;;;4.48;100.00;97494.28;5037812;28;20016;-81
2023/12/31 04:36:56;;;;;;;0.00;0.00;;;;;;;4.30;100.00;97499.44;5041639;28;20479;-82
2023/12/31 04:39:39;;;;;;;0.10;0.10;;;;;;;4.05;100.00;97464.72;5033932;28;20075;-82
2023/12/31 04:42:35;;;;;;;0.00;0.00;;;;;;;4.23;100.00;97515.25;5056474;28;20092;-81
2023/12/31 04:45:09;;;;;;;0.00;0.00;;;;;;;3.87;100.00;97459.06;5023188;28;20047;-81
2023/12/31 04:47:40;;;;;;;0.00;0.00;;;;;;;3.83;100.00;97455.34;5056579;28;20020;-82
2023/12/31 04:50:08;;;;;;;0.10;0.10;;;;;;;3.95;100.00;97488.09;5042107;28;20021;-81
2023/12/31 04:53:02;;;;;;;0.10;0.10;;;;;;;3.75;100.00;97462.22;5046926;28;20372;-79
2023/12/31 04:55:27;;;;;;;0.10;0.10;;;;;;;3.78;100.00;97482.44;5048951;28;20029;-80
2023/12/31 04:57:55;;;;;;;0.10;0.10;;;;;;;3.63;100.00;97472.66;5055583;28;20016;-80
2023/12/31 05:00:33;;;;;;;0.00;0.00;;;;;;;3.77;100.00;97502.47;5044456;28;20032;-80
2023/12/31 05:03:06;;;;;;;0.00;0.00;;;;;;;3.73;100.00;97501.44;5038457;28;20082;-79
2023/12/31 05:05:34;;;;;;;0.00;0.00;;;;;;;3.85;100.00;97528.81;5059997;28;20507;-81
2023/12/31 05:08:12;;;;;;;;;;;;;;;;;;;;;
2023/12/31 05:10:50;;;;;;;0.10;0.10;;;;;;;3.69;100.00;97513.91;5069338;28;20077;-81
2023/12/31 05:13:15;;;;;;;0.10;0.10;;;;;;;3.69;100.00;97516.63;5034935;28;20084;-78
2023/12/31 05:16:02;;;;;;;0.00;0.00;;;;;;;3.69;100.00;97516.63;5058226;28;20016;-81
2023/12/31 05:18:29;;;;;;;0.10;0.10;;;;;;;3.43;100.00;97479.13;5053748;28;20020;-78
2023/12/31 05:20:55;;;;;;;0.10;0.10;;;;;;;3.32;100.00;97492.78;5054904;28;20033;-79
2023/12/31 05:23:33;;;;;;;;;;;;;;;;;;;;;
2023/12/31 05:26:01;;;;;;;0.00;0.00;;;;;;;3.23;100.00;97499.94;5038453;28;20035;-78
2023/12/31 05:28:26;;;;;;;0.00;0.00;;;;;;;3.07;100.00;97485.03;5052256;28;20485;-79
2023/12/31 05:30:52;;;;;;;0.00;0.00;;;;;;;3.26;100.00;97510.16;5048028;28;20025;-78
2023/12/31 05:33:35;;;;;;;0.00;0.00;;;;;;;3.14;100.00;97496.28;5024634;28;20116;-76
2023/12/31 05:36:00;;;;;;;0.10;0.10;;;;;;;3.09;100.00;97499.81;5039027;28;20036;-78
2023/12/31 05:38:27;;;;;;;0.10;0.10;;;;;;;2.97;100.00;97484.03;5050626;28;20017;-78
2023/12/31 05:40:53;;;;;;;0.10;0.10;;;;;;;2.97;100.00;97481.34;5048397;28;20032;-78
2023/12/31 05:43:18;;;;;;;0.10;0.10;;;;;;;3.00;100.00;97485.38;5052665;28;20377;-78
2023/12/31 05:45:47;;;;;;;0.10;0.10;;;;;;;2.88;100.00;97483.06;5029074;28;20055;-78
2023/12/31 05:48:15;;;;;;;0.10;0.10;;;;;;;2.94;100.00;97498.13;5039040;28;20039;-79
2023/12/31 05:50:47;;;;;;;0.00;0.00;;;;;;;2.98;100.00;97487.56;5064457;28;20025;-79
2023/12/31 05:53:23;;;;;;;0.00;0.00;;;;;;;2.73;100.00;97438.19;5039156;28;20052;-78
2023/12/31 05:56:00;;;;;;;0.00;0.00;;;;;;;2.91;100.00;97465.50;5068406;28;20029;-78
2023/12/31 05:58:28;;;;;;;0.10;0.10;;;;;;;2.96;100.00;97474.34;5049167;28;20485;-76
2023/12/31 06:03:57;;;;;;;0.00;0.00;;;;;;;2.73;100.00;97442.75;5063185;28;20048;-80
2023/12/31 06:06:40;;;;;;;0.00;0.00;;;;;;;3.11;100.00;97486.84;5055683;28;20029;-79
2023/12/31 06:09:05;;;;;;;0.10;0.10;;;;;;;3.15;100.00;97476.25;5052197;28;20034;-81
2023/12/31 06:11:31;;;;;;;0.00;0.00;;;;;;;3.27;100.00;97467.72;5056138;28;20040;-80
2023/12/31 06:14:14;;;;;;;0.00;0.00;;;;;;;3.21;100.00;97450.78;5039856;28;20127;-80
2023/12/31 06:16:41;;;;;;;0.10;0.10;;;;;;;3.39;100.00;97470.00;5038945;28;20055;-80
2023/12/31 06:19:25;;;;;;;0.00;0.00;;;;;;;3.35;100.00;97463.59;5044471;28;20130;-81
2023/12/31 06:22:01;;;;;;;0.00;0.00;;;;;;;3.34;100.00;97462.00;5054949;28;20028;-81
2023/12/31 06:24:29;;;;;;;0.10;0.10;;;;;;;3.34;100.00;97462.00;5055314;28;20048;-82
2023/12/31 06:27:01;;;;;;;0.10;0.10;;;;;;;3.19;100.00;97444.09;5058983;28;20031;-78
2023/12/31 06:29:32;;;;;;;0.10;0.10;;;;;;;3.17;100.00;97430.06;5049782;28;20084;-78
2023/12/31 06:34:50;;;;;;;0.10;0.10;;;;;;;3.04;100.00;97420.78;5058577;28;20037;-79
2023/12/31 06:37:18;;;;;;;0.00;0.00;;;;;;;3.19;100.00;97444.88;5049594;28;20031;-78
2023/12/31 06:39:44;;;;;;;0.10;0.10;;;;;;;3.15;100.00;97441.16;5045039;28;20150;-79
2023/12/31 06:42:10;;;;;;;0.10;0.10;;;;;;;3.19;100.00;97455.69;5051637;28;20498;-79
2023/12/31 06:44:45;;;;;;;;;;;;;;;;;;;;;
2023/12/31 06:47:24;;;;;;;;;;;;;;;;;;;;;
2023/12/31 06:49:51;;;;;;;0.00;0.00;;;;;;;3.31;100.00;97490.38;5066141;28;20088;-79
2023/12/31 06:52:17;;;;;;;0.10;0.10;;;;;;;3.09;100.00;97453.13;5075799;28;20069;-80
2023/12/31 06:55:03;;;;;;;0.00;0.00;;;;;;;3.27;100.00;97478.53;5048137;28;20020;-81
2023/12/31 06:57:31;;;;;;;0.10;0.10;;;;;;;2.94;100.00;97449.53;5047285;28;20041;-82
2023/12/31 06:59:59;;;;;;;0.10;0.10;;;;;;;3.09;100.00;97477.44;5041139;28;20024;-82
2023/12/31 07:02:32;;;;;;;0.00;0.00;;;;;;;2.89;100.00;97435.28;5048320;28;20025;-82
2023/12/31 07:04:59;;;;;;;0.00;0.00;;;;;;;3.03;100.00;97457.00;5054437;28;20019;-81
2023/12/31 07:07:43;;;;;;;0.10;0.10;;;;;;;3.27;100.00;97483.94;5030098;28;20045;-81
2023/12/31 07:10:26;;;;;;;0.00;0.00;;;;;;;3.46;100.00;97510.97;5050603;28;20341;-80
2023/12/31 07:12:54;;;;;;;0.00;0.00;;;;;;;3.33;100.00;97472.00;5065984;28;20475;-81
2023/12/31 07:15:22;;;;;;;0.10;0.10;;;;;;;3.40;100.00;97472.44;5047769;28;20033;-81
2023/12/31 07:17:59;;;;;;;0.00;0.00;;;;;;;3.47;100.00;97474.75;5043141;28;20025;-81
2023/12/31 07:20:56;;;;;;;0.10;0.10;;;;;;;3.68;100.00;97499.63;5051058;28;20017;-84
2023/12/31 07:23:36;;;;;;;0.10;0.10;;;;;;;3.43;100.00;97442.16;5041123;28;20050;-81
2023/12/31 07:26:05;;;;;;;0.10;0.10;;;;;;;3.76;100.00;97492.75;5053882;28;20092;-80
2023/12/31 07:28:48;;;;;;;;;;;;;;;;;;;;;
2023/12/31 07:31:35;;;;;;;;;;;;;;;;;;;;;
2023/12/31 07:35:14;;;;;;;;;;;;;;;;;;;;;
2023/12/31 07:37:59;;;;;;;;;;;;;;;;;;;;;
2023/12/31 07:41:19;;;;;;;;;;;;;;;;;;;;;
2023/12/31 07:43:45;;;;;;;0.10;0.10;;;;;;;4.08;100.00;97472.25;5036627;28;20124;-77
2023/12/31 07:46:40;;;;;;;0.10;0.10;;;;;;;4.28;100.00;97481.91;5044596;28;20043;-83
2023/12/31 07:56:34;;;;;;;0.00;0.00;;;;;;;4.66;100.00;97495.31;5067417;28;20023;-83
2023/12/31 08:00:07;;;;;;;;;;;;;;;;;;;;;
2023/12/31 08:02:50;;;;;;;0.00;0.00;;;;;;;4.82;100.00;97471.44;5014469;28;20137;-82
2023/12/31 08:05:32;;;;;;;;;;;;;;;;;;;;;
2023/12/31 08:40:38;;;;;;;0.00;0.00;;;;;;;5.03;100.00;97407.66;4873786;29;20533;-83
2023/12/31 08:43:04;;;;;;;0.00;0.00;;;;;;;5.19;100.00;97437.94;4924689;29;20028;-82
2023/12/31 08:48:57;;;;;;;0.00;0.00;;;;;;;5.58;100.00;97441.97;5046568;28;20536;-83
2023/12/31 08:51:53;;;;;;;;;;;;;;;;;;;;;
2023/12/31 08:54:55;;;;;;;;;;;;;;;;;;;;;
2023/12/31 08:57:23;;;;;;;0.00;0.00;;;;;;;6.27;100.00;97480.78;5059037;28;20088;-83
2023/12/31 08:59:57;;;;;;;0.00;0.00;;;;;;;6.04;100.00;97414.88;5038888;28;20032;-82
2023/12/31 09:02:37;;;;;;;0.00;0.00;;;;;;;6.02;100.00;97420.63;5032508;28;20055;-84
2023/12/31 09:06:00;;;;;;;;;;;;;;;;;;;;;
2023/12/31 09:08:51;;;;;;;0.00;0.00;;;;;;;6.04;100.00;97483.50;5059842;28;20091;-84
2023/12/31 09:18:57;;;;;;;0.00;0.00;;;;;;;6.18;100.00;97488.06;4949552;29;20086;-85
2023/12/31 09:21:57;;;;;;;0.00;0.00;;;;;;;6.36;100.00;97492.47;4955090;28;20120;-89
2023/12/31 09:24:57;;;;;;;0.00;0.00;;;;;;;6.21;100.00;97446.75;5000362;28;20102;-90
2023/12/31 09:27:32;;;;;;;0.00;0.00;;;;;;;6.24;100.00;97443.41;4991584;28;20033;-88
2023/12/31 09:31:10;;;;;;;0.10;0.10;;;;;;;6.78;100.00;97501.19;5007133;28;20041;-90
2023/12/31 09:37:24;;;;;;;0.00;0.00;;;;;;;6.95;100.00;97516.78;4995337;28;20094;-85
2023/12/31 09:43:59;;;;;;;0.00;0.00;;;;;;;6.72;100.00;97524.16;4930382;29;20699;-81
2023/12/31 09:46:41;;;;;;;0.00;0.00;;;;;;;6.18;100.00;97509.78;4933027;28;20096;-87
2023/12/31 09:49:37;;;;;;;;;;;;;;;;;;;;;
2023/12/31 09:56:03;;;;;;;;;;;;;;;;;;;;;
2023/12/31 09:58:51;;;;;;;;;;;;;;;;;;;;;
2023/12/31 10:08:26;;;;;;;;;;;;;;;;;;;;;
2023/12/31 10:16:00;;;;;;;;;;;;;;;;;;;;;
2023/12/31 10:22:02;;;;;;;;;;;;;;;;;;;;;
2023/12/31 10:24:40;;;;;;;;;;;;;;;;;;;;;
2023/12/31 10:28:01;;;;;;;0.00;0.00;;;;;;;5.84;100.00;97502.94;4950285;28;20083;-86
2023/12/31 10:34:39;;;;;;;0.10;0.10;;;;;;;6.11;100.00;97548.97;4880713;29;20052;-83
2023/12/31 10:41:16;;;;;;;0.00;0.00;;;;;;;6.68;100.00;97563.91;4823888;29;20050;-84
2023/12/31 10:51:34;;;;;;;;;;;;;;;;;;;;;
2023/12/31 10:54:23;;;;;;;0.00;0.00;;;;;;;10.72;100.00;97556.63;4912460;29;20380;-84
2023/12/31 10:57:01;;;;;;;0.00;0.00;;;;;;;11.52;100.00;97555.38;4892061;29;20064;-83
2023/12/31 11:00:09;;;;;;;;;;;;;;;;;;;;;
2023/12/31 11:02:56;;;;;;;;;;;;;;;;;;;;;
2023/12/31 11:05:26;;;;;;;0.00;0.00;;;;;;;9.79;100.00;97554.78;4964451;28;20032;-83
2023/12/31 11:08:42;;;;;;;;;;;;;;;;;;;;;
2023/12/31 11:11:38;;;;;;;0.10;0.10;;;;;;;11.94;100.00;97596.22;5035754;28;20120;-82
2023/12/31 11:14:15;;;;;;;;;;;;;;;12.59;98.88;97567.97;5009080;28;20908;-83
2023/12/31 11:16:57;;;;;;;0.00;0.00;;;;;;;12.17;96.71;97582.03;5059631;28;20753;-83
2023/12/31 11:23:35;;;;;;;;;;;;;;;;;;;;;
2023/12/31 11:26:44;;;;;;;;;;;;;;;;;;;;;
2023/12/31 11:47:02;;;;;;;0.00;0.00;;;;;;;15.35;67.85;97533.28;4843001;29;20501;-82
2023/12/31 11:53:00;;;;;;;0.00;0.00;;;;;;;17.53;59.85;97554.88;4983254;28;20023;-84
2023/12/31 11:55:57;;;;;;;0.00;0.00;;;;;;;16.09;66.57;97595.44;4964906;28;20049;-83
2023/12/31 11:59:24;;;;;;;;;;;;;;;;;;;;;
2023/12/31 12:01:51;;;;;;;;;;;;;;;;;;;;;
2023/12/31 12:08:10;;;;;;;;;;;;;;;;;;;;;
2023/12/31 12:10:36;;;;;;;0.00;0.00;;;;;;;14.46;69.17;97589.00;4985050;28;20145;-82
2023/12/31 12:13:11;;;;;;;0.00;0.00;;;;;;;12.55;75.57;97537.72;5024304;28;20088;-82
2023/12/31 12:19:29;;;;;;;0.00;0.00;;;;;;;11.98;80.78;97556.03;5024049;28;20041;-81
2023/12/31 12:22:16;;;;;;;0.10;0.10;;;;;;;12.01;80.70;97541.66;5026912;28;20092;-82
2023/12/31 12:25:00;;;;;;;;;;;;;;;;;;;;;
2023/12/31 12:27:29;;;;;;;0.00;0.00;;;;;;;13.18;83.63;97571.09;5035186;28;20096;-82
2023/12/31 12:30:27;;;;;;;0.00;0.00;;;;;;;14.76;73.27;97569.19;5024535;28;20077;-84
2023/12/31 12:33:02;;;;;;;0.00;0.00;;;;;;;14.47;70.22;97554.84;5046297;28;20447;-83
2023/12/31 12:35:48;;;;;;;;;;;;;;;;;;;;;
2023/12/31 12:38:16;;;;;;;0.00;0.00;;;;;;;11.20;81.08;97537.91;5073129;28;20570;-83
2023/12/31 12:44:40;;;;;;;0.00;0.00;;;;;;;10.68;87.78;97531.13;5059686;28;20041;-84
2023/12/31 12:48:12;;;;;;;;;;;;;;;;;;;;;
2023/12/31 13:52:29;;;;;;;0.00;0.00;;;;;;;9.19;99.72;97619.41;5778028;22;20054;-84
2023/12/31 15:18:02;;;;;;;;;;;;;;;;;;;;;
2023/12/31 15:20:54;;;;;;;0.00;0.00;;;;;;;6.43;100.00;97726.31;4804459;29;20208;-79
2023/12/31 15:23:45;;;;;;;0.00;0.00;;;;;;;6.08;100.00;97696.09;4883161;29;20036;-80
2023/12/31 15:26:38;;;;;;;;;;;;;;;;;;;;;
2023/12/31 15:29:36;;;;;;;0.00;0.00;;;;;;;6.16;100.00;97729.06;4883598;29;20135;-80
2023/12/31 15:32:34;;;;;;;;;;;;;;;;;;;;;
2023/12/31 15:38:18;;;;;;;0.00;0.00;;;;;;;6.74;100.00;97762.84;4871523;29;21222;-80
2023/12/31 15:41:11;;;;;;;0.10;0.10;;;;;;;6.55;100.00;97735.84;4895737;28;20104;-79
2023/12/31 15:47:35;;;;;;;0.00;0.00;;;;;;;6.49;100.00;97712.63;4973020;28;20366;-81
2023/12/31 15:53:40;;;;;;;;;;;;;;;;;;;;;
2023/12/31 15:56:13;;;;;;;0.00;0.00;;;;;;;6.32;100.00;97711.34;4938217;29;20505;-80
2023/12/31 16:03:09;;;;;;;;;;;;;;;;;;;;;
2023/12/31 16:06:09;;;;;;;0.00;0.00;;;;;;;6.74;100.00;97766.34;4996739;28;20137;-84
2023/12/31 16:12:14;;;;;;;;;;;;;;;;;;;;;
2023/12/31 16:15:03;;;;;;;0.10;0.10;;;;;;;6.25;100.00;97711.78;4991927;28;20480;-80
2023/12/31 16:18:17;;;;;;;0.00;0.00;;;;;;;6.40;100.00;97740.50;4968540;28;20030;-80
2023/12/31 16:21:23;;;;;;;0.00;0.00;;;;;;;6.64;100.00;97785.59;4965869;28;20456;-76
2023/12/31 16:41:39;;;;;;;0.00;0.00;;;;;;;5.39;100.00;97843.22;4880858;28;20087;-76
2023/12/31 16:44:18;;;;;;;;;;;;;;;;;;;;;
2023/12/31 16:47:00;;;;;;;0.00;0.00;;;;;;;5.26;100.00;97827.69;5002307;28;20037;-77
2023/12/31 16:49:39;;;;;;;;;;;;;;;;;;;;;
2023/12/31 16:55:44;;;;;;;;;;;;;;;;;;;;;
2023/12/31 16:59:17;;;;;;;0.00;0.00;;;;;;;5.01;100.00;97815.34;4983644;28;20022;-80
2023/12/31 17:02:03;;;;;;;0.00;0.00;;;;;;;5.14;100.00;97849.00;4898201;29;20286;-79
2023/12/31 17:04:49;;;;;;;0.00;0.00;;;;;;;5.45;100.00;97884.59;4921867;28;20036;-81
2023/12/31 17:07:35;;;;;;;0.00;0.00;;;;;;;5.19;100.00;97874.13;4907232;29;20036;-86
2023/12/31 17:10:14;;;;;;;;;;;;;;;;;;;;;
2023/12/31 17:13:11;;;;;;;0.00;0.00;;;;;;;5.55;100.00;97889.84;4917595;29;20147;-78
2023/12/31 17:16:05;;;;;;;;;;;;;;;;;;;;;
2023/12/31 17:18:31;;;;;;;0.00;0.00;;;;;;;5.33;100.00;97866.06;4949875;28;20039;-78
2023/12/31 17:21:16;;;;;;;0.00;0.00;;;;;;;5.22;100.00;97865.41;4972210;28;20077;-79
2023/12/31 17:24:33;;;;;;;0.00;0.00;;;;;;;5.17;100.00;97861.97;4961629;28;20027;-78
2023/12/31 17:27:16;;;;;;;0.00;0.00;;;;;;;5.55;100.00;97911.53;4916467;28;20066;-78
2023/12/31 17:30:28;;;;;;;0.00;0.00;;;;;;;5.23;100.00;97871.66;4966513;28;20034;-78
2023/12/31 17:37:58;;;;;;;;;;;;;;;;;;;;;
2023/12/31 17:40:26;;;;;;;0.00;0.00;;;;;;;5.27;100.00;97888.94;4880525;28;20043;-73
2023/12/31 17:42:52;;;;;;;0.00;0.00;;;;;;;5.41;100.00;97910.66;4974674;28;20055;-80
2023/12/31 17:45:33;;;;;;;;;;;;;;;;;;;;;
2023/12/31 17:48:09;;;;;;;0.00;0.00;;;;;;;5.34;100.00;97893.97;4958479;28;20109;-83
2023/12/31 18:00:53;;;;;;;0.00;0.00;;;;;;;5.35;100.00;97956.00;4973565;28;20046;-80
2023/12/31 18:06:45;;;;;;;0.00;0.00;;;;;;;5.00;100.00;97939.13;4965708;28;20047;-80
2023/12/31 18:09:49;;;;;;;;;;;;;;;;;;;;;
2023/12/31 18:12:55;;;;;;;0.00;0.00;;;;;;;5.09;100.00;97965.56;4971493;28;20444;-83
2023/12/31 19:19:12;;;;;;;0.10;0.10;;;;;;;6.21;100.00;98106.97;3176437;23;20084;-78
2023/12/31 19:22:19;;;;;;;0.00;0.00;;;;;;;6.02;100.00;98082.56;4985652;28;20129;-76
2023/12/31 19:29:18;;;;;;;;;;;;;;;;;;;;;
2023/12/31 19:35:57;;;;;;;;;;;;;;;;;;;;;
2023/12/31 19:39:19;;;;;;;0.00;0.00;;;;;;;5.81;100.00;98083.91;4868280;29;20128;-79
2023/12/31 20:38:58;;;;;;;0.00;0.00;;;;;;;5.85;100.00;98158.97;5007985;28;20061;-82
2023/12/31 20:41:31;;;;;;;;;;;;;;;6.03;100.00;98195.44;4988323;28;20039;-82
2023/12/31 20:44:04;;;;;;;0.00;0.00;;;;;;;5.80;100.00;98171.78;4983041;28;19913;-80
2023/12/31 20:46:34;;;;;;;0.00;0.00;;;;;;;5.75;100.00;98170.78;4979367;28;20060;-77
2023/12/31 20:49:01;;;;;;;0.00;0.00;;;;;;;5.82;100.00;98185.88;4985658;28;20089;-81
2023/12/31 20:51:27;;;;;;;0.00;0.00;;;;;;;5.80;100.00;98190.78;4982452;28;20022;-79
2023/12/31 20:54:05;;;;;;;;;;;;;;;;;;;;;
2023/12/31 20:56:31;;;;;;;0.00;0.00;;;;;;;5.78;100.00;98191.06;4991064;28;20655;-81
2023/12/31 20:59:01;;;;;;;0.00;0.00;;;;;;;5.76;100.00;98194.06;4988750;28;20113;-83
2023/12/31 21:01:27;;;;;;;0.10;0.10;;;;;;;5.62;100.00;98187.72;4998494;28;20360;-82
2023/12/31 21:03:52;;;;;;;0.00;0.00;;;;;;;5.73;100.00;98221.78;4999115;28;20054;-80
2023/12/31 21:06:25;;;;;;;0.10;0.10;;;;;;;5.56;100.00;98215.97;4975170;28;20033;-80
2023/12/31 21:17:57;;;;;;;;;;;;;;;;;;;;;
2023/12/31 21:20:22;;;;;;;0.00;0.00;;;;;;;5.98;100.00;98211.75;5009392;28;20090;-78
2023/12/31 21:23:04;;;;;;;;;;;;;;;;;;;;;
2023/12/31 21:25:50;;;;;;;0.00;0.00;;;;;;;6.08;100.00;98240.69;5000027;28;20473;-80
2023/12/31 21:28:19;;;;;;;0.00;0.00;;;;;;;5.87;100.00;98229.22;4992417;28;20029;-80
2023/12/31 21:30:59;;;;;;;0.00;0.00;;;;;;;5.93;100.00;98244.34;4993349;28;20025;-83
2023/12/31 21:51:26;;;;;;;0.00;0.00;;;;;;;5.46;100.00;98273.00;5171802;23;20408;-83
2023/12/31 21:54:09;;;;;;;0.00;0.00;;;;;;;5.57;100.00;98282.69;4992522;28;20030;-81
2023/12/31 21:56:42;;;;;;;0.10;0.10;;;;;;;5.72;100.00;98306.13;4987484;28;20646;-80
2023/12/31 21:59:27;;;;;;;0.00;0.00;;;;;;;5.49;100.00;98280.56;4984181;28;20460;-82
2023/12/31 22:01:56;;;;;;;;;;;;;;;5.74;100.00;98328.38;4982926;28;20113;-82
2023/12/31 22:04:41;;;;;;;0.00;0.00;;;;;;;5.37;100.00;98289.09;4997353;28;19910;-85
2023/12/31 22:07:27;;;;;;;0.00;0.00;;;;;;;5.27;100.00;98279.16;4992736;28;20026;-81
2023/12/31 22:09:53;;;;;;;0.00;0.00;;;;;;;5.24;100.00;98290.53;5001558;28;20046;-82
2023/12/31 22:12:20;;;;;;;0.00;0.00;;;;;;;5.22;100.00;98290.03;4984639;28;20056;-82
2023/12/31 22:14:56;;;;;;;0.00;0.00;;;;;;;5.19;100.00;98304.94;5001014;28;20025;-81
2023/12/31 22:17:29;;;;;;;0.10;0.10;;;;;;;5.27;100.00;98308.97;4989122;28;20038;-80
2023/12/31 22:19:57;;;;;;;0.00;0.00;;;;;;;5.38;100.00;98340.31;4991828;28;20046;-80
2023/12/31 22:22:23;;;;;;;0.10;0.10;;;;;;;5.50;100.00;98353.50;4972923;28;20022;-80
2023/12/31 22:24:51;;;;;;;0.00;0.00;;;;;;;5.29;100.00;98322.22;4984825;28;20053;-80
2023/12/31 22:27:16;;;;;;;0.10;0.10;;;;;;;5.25;100.00;98330.91;4984905;28;20034;-80
2023/12/31 22:29:42;;;;;;;0.10;0.10;;;;;;;5.09;100.00;98315.06;4976593;28;20076;-80
2023/12/31 22:32:10;;;;;;;0.00;0.00;;;;;;;5.14;100.00;98328.53;4985243;28;20101;-78
2023/12/31 22:34:43;;;;;;;0.00;0.00;;;;;;;5.18;100.00;98356.72;4986180;28;20025;-80
2023/12/31 22:37:40;;;;;;;0.00;0.00;;;;;;;4.98;100.00;98339.50;4982344;28;20018;-80
2023/12/31 22:40:14;;;;;;;0.00;0.00;;;;;;;5.02;100.00;98337.84;4992228;28;20056;-80
2023/12/31 22:42:56;;;;;;;0.10;0.10;;;;;;;5.02;100.00;98351.41;4997820;28;20124;-80
2023/12/31 22:45:21;;;;;;;0.00;0.00;;;;;;;5.25;100.00;98400.56;4961715;28;20436;-81
2023/12/31 22:48:15;;;;;;;;;;;;;;;;;;;;;
2023/12/31 22:50:52;;;;;;;0.10;0.10;;;;;;;5.04;100.00;98368.16;5002700;28;20107;-82
2023/12/31 22:54:10;;;;;;;0.00;0.00;;;;;;;5.44;100.00;98432.44;4980824;28;20101;-80
2023/12/31 22:56:36;;;;;;;0.00;0.00;;;;;;;5.30;100.00;98405.97;4985392;28;20030;-78
2023/12/31 22:59:02;;;;;;;0.00;0.00;;;;;;;5.49;100.00;98438.63;4962307;28;20034;-82
2023/12/31 23:01:59;;;;;;;0.00;0.00;;;;;;;5.48;100.00;98438.94;4971327;28;20025;-76
2023/12/31 23:04:27;;;;;;;0.00;0.00;;;;;;;5.50;100.00;98445.66;4990870;28;20832;-78
2023/12/31 23:06:53;;;;;;;0.00;0.00;;;;;;;5.59;100.00;98454.84;4994424;28;20399;-77
2023/12/31 23:12:48;;;;;;;0.00;0.00;;;;;;;5.56;100.00;98455.41;5007465;28;20085;-77
2023/12/31 23:15:14;;;;;;;0.10;0.10;;;;;;;5.53;100.00;98449.72;4976984;28;20033;-77
2023/12/31 23:17:39;;;;;;;0.00;0.00;;;;;;;5.49;100.00;98454.06;4984740;28;20037;-77
2023/12/31 23:20:08;;;;;;;0.10;0.10;;;;;;;5.65;100.00;98490.88;4977324;28;20400;-76
2023/12/31 23:22:34;;;;;;;0.00;0.00;;;;;;;5.48;100.00;98463.31;4994523;28;21174;-77
2023/12/31 23:25:02;;;;;;;0.10;0.10;;;;;;;5.60;100.00;98474.63;4966249;28;20030;-77
2023/12/31 23:27:28;;;;;;;0.00;0.00;;;;;;;5.73;100.00;98501.13;4968260;28;20101;-76
2023/12/31 23:29:53;;;;;;;0.10;0.10;;;;;;;5.66;100.00;98502.53;4959322;28;20060;-75
2023/12/31 23:32:19;;;;;;;0.00;0.00;;;;;;;5.67;100.00;98510.38;4974340;28;20065;-75
2023/12/31 23:34:45;;;;;;;0.00;0.00;;;;;;;5.49;100.00;98486.63;4977294;28;20080;-76
2023/12/31 23:37:10;;;;;;;0.00;0.00;;;;;;;5.62;100.00;98506.88;4978701;28;20026;-78
2023/12/31 23:39:38;;;;;;;0.00;0.00;;;;;;;5.58;100.00;98501.22;4984526;28;20653;-76
2023/12/31 23:42:04;;;;;;;0.00;0.00;;;;;;;5.55;100.00;98499.06;4983134;28;20030;-76
2023/12/31 23:44:30;;;;;;;0.00;0.00;;;;;;;5.71;100.00;98533.13;4996969;28;20499;-76
2023/12/31 23:46:56;;;;;;;0.00;0.00;;;;;;;5.69;100.00;98534.50;4990288;28;20097;-76
2023/12/31 23:49:29;;;;;;;0.10;0.10;;;;;;;5.54;100.00;98524.56;4979773;28;20767;-76
2023/12/31 23:51:57;;;;;;;0.00;0.00;;;;;;;5.53;100.00;98520.22;4993941;28;20042;-77
2023/12/31 23:54:28;;;;;;;0.00;0.00;;;;;;;5.53;100.00;98526.44;4978474;28;20022;-76
2023/12/31 23:56:59;;;;;;;0.00;0.00;;;;;;;5.46;100.00;98508.88;4990847;28;20026;-76
2023/12/31 23:59:25;;;;;;;0.00;0.00;;;;;;;5.37;100.00;98506.75;4981070;28;20476;-76
